sensor_id;sensor_type;location;lat;lon;timestamp;P1;durP1;ratioP1;P2;durP2;ratioP2
18196;SDS011;9224;52.422;13.024;2023-02-01T00:00:23;15.02;;;4.70;;
18196;SDS011;9224;52.422;13.024;2023-02-01T00:02:51;14.20;;;4.75;;
18196;SDS011;9224;52.422;13.024;2023-02-01T00:05:17;17.35;;;5.00;;
18196;SDS011;9224;52.422;13.024;2023-02-01T00:07:46;14.40;;;5.10;;
18196;SDS011;9224;52.422;13.024;2023-02-01T00:10:13;17.20;;;4.93;;
18196;SDS011;9224;52.422;13.024;2023-02-01T00:12:39;15.35;;;4.90;;
18196;SDS011;9224;52.422;13.024;2023-02-01T00:15:06;16.92;;;5.07;;
18196;SDS011;9224;52.422;13.024;2023-02-01T00:17:34;14.68;;;4.70;;
18196;SDS011;9224;52.422;13.024;2023-02-01T00:20:02;13.85;;;4.78;;
18196;SDS011;9224;52.422;13.024;2023-02-01T00:22:29;15.90;;;5.03;;
18196;SDS011;9224;52.422;13.024;2023-02-01T00:24:55;17.43;;;4.87;;
18196;SDS011;9224;52.422;13.024;2023-02-01T00:27:22;14.25;;;5.13;;
18196;SDS011;9224;52.422;13.024;2023-02-01T00:29:49;15.43;;;4.70;;
18196;SDS011;9224;52.422;13.024;2023-02-01T00:32:15;17.47;;;4.80;;
18196;SDS011;9224;52.422;13.024;2023-02-01T00:34:42;15.93;;;4.80;;
18196;SDS011;9224;52.422;13.024;2023-02-01T00:37:10;15.98;;;5.03;;
18196;SDS011;9224;52.422;13.024;2023-02-01T00:39:36;17.30;;;4.97;;
18196;SDS011;9224;52.422;13.024;2023-02-01T00:42:03;15.68;;;4.38;;
18196;SDS011;9224;52.422;13.024;2023-02-01T00:44:30;16.08;;;4.82;;
18196;SDS011;9224;52.422;13.024;2023-02-01T00:46:59;20.25;;;5.25;;
18196;SDS011;9224;52.422;13.024;2023-02-01T00:49:26;15.93;;;4.40;;
18196;SDS011;9224;52.422;13.024;2023-02-01T00:51:52;14.40;;;4.47;;
18196;SDS011;9224;52.422;13.024;2023-02-01T00:54:20;12.45;;;4.38;;
18196;SDS011;9224;52.422;13.024;2023-02-01T00:56:47;15.57;;;4.63;;
18196;SDS011;9224;52.422;13.024;2023-02-01T00:59:14;13.15;;;4.50;;
18196;SDS011;9224;52.422;13.024;2023-02-01T01:01:41;16.70;;;4.30;;
18196;SDS011;9224;52.422;13.024;2023-02-01T01:04:07;15.77;;;4.55;;
18196;SDS011;9224;52.422;13.024;2023-02-01T01:06:34;11.43;;;4.07;;
18196;SDS011;9224;52.422;13.024;2023-02-01T01:09:02;15.20;;;4.45;;
18196;SDS011;9224;52.422;13.024;2023-02-01T01:11:31;14.90;;;4.45;;
18196;SDS011;9224;52.422;13.024;2023-02-01T01:13:59;14.93;;;4.10;;
18196;SDS011;9224;52.422;13.024;2023-02-01T01:16:27;13.82;;;4.28;;
18196;SDS011;9224;52.422;13.024;2023-02-01T01:18:54;16.08;;;4.97;;
18196;SDS011;9224;52.422;13.024;2023-02-01T01:21:21;16.42;;;4.70;;
18196;SDS011;9224;52.422;13.024;2023-02-01T01:23:48;11.82;;;4.50;;
18196;SDS011;9224;52.422;13.024;2023-02-01T01:26:16;14.32;;;4.53;;
18196;SDS011;9224;52.422;13.024;2023-02-01T01:28:45;14.68;;;4.30;;
18196;SDS011;9224;52.422;13.024;2023-02-01T01:31:12;12.95;;;4.68;;
18196;SDS011;9224;52.422;13.024;2023-02-01T01:33:40;13.88;;;4.10;;
18196;SDS011;9224;52.422;13.024;2023-02-01T01:36:09;20.00;;;4.97;;
18196;SDS011;9224;52.422;13.024;2023-02-01T01:38:37;13.52;;;4.18;;
18196;SDS011;9224;52.422;13.024;2023-02-01T01:41:04;14.65;;;4.75;;
18196;SDS011;9224;52.422;13.024;2023-02-01T01:43:46;14.40;;;4.47;;
18196;SDS011;9224;52.422;13.024;2023-02-01T01:46:15;15.55;;;4.82;;
18196;SDS011;9224;52.422;13.024;2023-02-01T01:48:42;14.50;;;4.78;;
18196;SDS011;9224;52.422;13.024;2023-02-01T01:51:09;15.82;;;4.85;;
18196;SDS011;9224;52.422;13.024;2023-02-01T01:53:37;16.40;;;4.43;;
18196;SDS011;9224;52.422;13.024;2023-02-01T01:56:06;14.13;;;4.60;;
18196;SDS011;9224;52.422;13.024;2023-02-01T01:58:33;14.18;;;4.32;;
18196;SDS011;9224;52.422;13.024;2023-02-01T02:01:01;15.15;;;4.15;;
18196;SDS011;9224;52.422;13.024;2023-02-01T02:03:30;15.48;;;4.50;;
18196;SDS011;9224;52.422;13.024;2023-02-01T02:05:59;15.80;;;4.60;;
18196;SDS011;9224;52.422;13.024;2023-02-01T02:08:28;13.55;;;3.80;;
18196;SDS011;9224;52.422;13.024;2023-02-01T02:10:55;15.32;;;4.60;;
18196;SDS011;9224;52.422;13.024;2023-02-01T02:13:28;13.93;;;4.25;;
18196;SDS011;9224;52.422;13.024;2023-02-01T02:16:08;14.77;;;4.43;;
18196;SDS011;9224;52.422;13.024;2023-02-01T02:18:44;16.70;;;4.83;;
18196;SDS011;9224;52.422;13.024;2023-02-01T02:21:23;14.57;;;4.80;;
18196;SDS011;9224;52.422;13.024;2023-02-01T02:26:53;14.25;;;4.70;;
18196;SDS011;9224;52.422;13.024;2023-02-01T02:32:52;15.35;;;4.88;;
18196;SDS011;9224;52.422;13.024;2023-02-01T02:35:50;16.38;;;4.65;;
18196;SDS011;9224;52.422;13.024;2023-02-01T02:38:22;13.52;;;4.45;;
18196;SDS011;9224;52.422;13.024;2023-02-01T02:40:58;14.68;;;4.45;;
18196;SDS011;9224;52.422;13.024;2023-02-01T02:43:31;14.60;;;4.60;;
18196;SDS011;9224;52.422;13.024;2023-02-01T02:46:20;13.90;;;4.47;;
18196;SDS011;9224;52.422;13.024;2023-02-01T02:49:09;15.07;;;4.85;;
18196;SDS011;9224;52.422;13.024;2023-02-01T02:51:40;16.15;;;4.32;;
18196;SDS011;9224;52.422;13.024;2023-02-01T02:54:28;13.53;;;4.60;;
18196;SDS011;9224;52.422;13.024;2023-02-01T02:57:18;13.45;;;4.50;;
18196;SDS011;9224;52.422;13.024;2023-02-01T03:00:04;17.08;;;4.68;;
18196;SDS011;9224;52.422;13.024;2023-02-01T03:02:50;16.38;;;4.70;;
18196;SDS011;9224;52.422;13.024;2023-02-01T03:05:37;13.67;;;4.87;;
18196;SDS011;9224;52.422;13.024;2023-02-01T03:08:09;12.05;;;4.32;;
18196;SDS011;9224;52.422;13.024;2023-02-01T03:10:47;15.88;;;4.75;;
18196;SDS011;9224;52.422;13.024;2023-02-01T03:13:36;17.50;;;4.80;;
18196;SDS011;9224;52.422;13.024;2023-02-01T03:16:23;13.88;;;4.80;;
18196;SDS011;9224;52.422;13.024;2023-02-01T03:18:52;16.50;;;4.75;;
18196;SDS011;9224;52.422;13.024;2023-02-01T03:21:23;16.92;;;4.75;;
18196;SDS011;9224;52.422;13.024;2023-02-01T03:23:51;14.55;;;4.68;;
18196;SDS011;9224;52.422;13.024;2023-02-01T03:26:20;13.60;;;4.55;;
18196;SDS011;9224;52.422;13.024;2023-02-01T03:28:51;14.85;;;4.43;;
18196;SDS011;9224;52.422;13.024;2023-02-01T03:31:21;14.55;;;4.32;;
18196;SDS011;9224;52.422;13.024;2023-02-01T03:33:48;14.65;;;4.53;;
18196;SDS011;9224;52.422;13.024;2023-02-01T03:36:17;16.42;;;4.55;;
18196;SDS011;9224;52.422;13.024;2023-02-01T03:38:55;15.50;;;4.50;;
18196;SDS011;9224;52.422;13.024;2023-02-01T03:41:27;14.60;;;4.50;;
18196;SDS011;9224;52.422;13.024;2023-02-01T03:43:55;16.15;;;5.00;;
18196;SDS011;9224;52.422;13.024;2023-02-01T03:46:27;17.33;;;4.60;;
18196;SDS011;9224;52.422;13.024;2023-02-01T03:48:58;16.80;;;5.50;;
18196;SDS011;9224;52.422;13.024;2023-02-01T03:51:26;14.40;;;5.18;;
18196;SDS011;9224;52.422;13.024;2023-02-01T03:53:54;15.23;;;5.10;;
18196;SDS011;9224;52.422;13.024;2023-02-01T03:56:21;14.10;;;4.47;;
18196;SDS011;9224;52.422;13.024;2023-02-01T03:58:49;16.25;;;4.50;;
18196;SDS011;9224;52.422;13.024;2023-02-01T04:01:24;19.10;;;5.10;;
18196;SDS011;9224;52.422;13.024;2023-02-01T04:03:52;15.00;;;4.60;;
18196;SDS011;9224;52.422;13.024;2023-02-01T04:06:19;16.55;;;4.70;;
18196;SDS011;9224;52.422;13.024;2023-02-01T04:08:45;17.88;;;4.88;;
18196;SDS011;9224;52.422;13.024;2023-02-01T04:11:13;15.13;;;4.88;;
18196;SDS011;9224;52.422;13.024;2023-02-01T04:13:40;17.90;;;4.97;;
18196;SDS011;9224;52.422;13.024;2023-02-01T04:16:07;15.60;;;4.63;;
18196;SDS011;9224;52.422;13.024;2023-02-01T04:18:33;15.60;;;4.50;;
18196;SDS011;9224;52.422;13.024;2023-02-01T04:21:00;14.63;;;4.30;;
18196;SDS011;9224;52.422;13.024;2023-02-01T04:23:27;13.70;;;4.63;;
18196;SDS011;9224;52.422;13.024;2023-02-01T04:25:53;15.47;;;4.83;;
18196;SDS011;9224;52.422;13.024;2023-02-01T04:28:23;18.77;;;4.97;;
18196;SDS011;9224;52.422;13.024;2023-02-01T04:30:50;15.93;;;4.78;;
18196;SDS011;9224;52.422;13.024;2023-02-01T04:33:16;17.90;;;5.07;;
18196;SDS011;9224;52.422;13.024;2023-02-01T04:35:43;16.98;;;4.93;;
18196;SDS011;9224;52.422;13.024;2023-02-01T04:38:09;15.50;;;4.85;;
18196;SDS011;9224;52.422;13.024;2023-02-01T04:40:36;15.80;;;5.03;;
18196;SDS011;9224;52.422;13.024;2023-02-01T04:43:03;14.27;;;5.10;;
18196;SDS011;9224;52.422;13.024;2023-02-01T04:45:31;19.70;;;5.15;;
18196;SDS011;9224;52.422;13.024;2023-02-01T04:47:57;18.15;;;5.28;;
18196;SDS011;9224;52.422;13.024;2023-02-01T04:50:24;14.93;;;4.93;;
18196;SDS011;9224;52.422;13.024;2023-02-01T04:52:50;15.57;;;4.85;;
18196;SDS011;9224;52.422;13.024;2023-02-01T04:55:17;16.17;;;5.05;;
18196;SDS011;9224;52.422;13.024;2023-02-01T04:57:44;15.95;;;5.10;;
18196;SDS011;9224;52.422;13.024;2023-02-01T05:00:11;16.35;;;5.00;;
18196;SDS011;9224;52.422;13.024;2023-02-01T05:02:39;19.48;;;5.07;;
18196;SDS011;9224;52.422;13.024;2023-02-01T05:05:06;14.98;;;5.05;;
18196;SDS011;9224;52.422;13.024;2023-02-01T05:07:33;15.70;;;4.88;;
18196;SDS011;9224;52.422;13.024;2023-02-01T05:10:00;17.00;;;4.75;;
18196;SDS011;9224;52.422;13.024;2023-02-01T05:12:26;16.38;;;4.57;;
18196;SDS011;9224;52.422;13.024;2023-02-01T05:15:11;16.58;;;5.15;;
18196;SDS011;9224;52.422;13.024;2023-02-01T05:17:37;19.50;;;5.18;;
18196;SDS011;9224;52.422;13.024;2023-02-01T05:20:07;15.27;;;4.88;;
18196;SDS011;9224;52.422;13.024;2023-02-01T05:22:35;15.37;;;5.07;;
18196;SDS011;9224;52.422;13.024;2023-02-01T05:25:01;15.50;;;4.95;;
18196;SDS011;9224;52.422;13.024;2023-02-01T05:27:28;17.17;;;5.35;;
18196;SDS011;9224;52.422;13.024;2023-02-01T05:29:55;17.98;;;5.25;;
18196;SDS011;9224;52.422;13.024;2023-02-01T05:32:22;17.63;;;4.87;;
18196;SDS011;9224;52.422;13.024;2023-02-01T05:34:49;14.93;;;4.70;;
18196;SDS011;9224;52.422;13.024;2023-02-01T05:37:17;18.77;;;4.70;;
18196;SDS011;9224;52.422;13.024;2023-02-01T05:39:43;13.57;;;5.32;;
18196;SDS011;9224;52.422;13.024;2023-02-01T05:42:10;18.50;;;4.70;;
18196;SDS011;9224;52.422;13.024;2023-02-01T05:44:36;18.90;;;4.80;;
18196;SDS011;9224;52.422;13.024;2023-02-01T05:47:03;15.27;;;4.80;;
18196;SDS011;9224;52.422;13.024;2023-02-01T05:49:30;17.25;;;5.30;;
18196;SDS011;9224;52.422;13.024;2023-02-01T05:51:56;15.23;;;5.28;;
18196;SDS011;9224;52.422;13.024;2023-02-01T05:54:24;15.98;;;4.82;;
18196;SDS011;9224;52.422;13.024;2023-02-01T05:56:53;17.60;;;4.90;;
18196;SDS011;9224;52.422;13.024;2023-02-01T05:59:20;16.63;;;5.17;;
18196;SDS011;9224;52.422;13.024;2023-02-01T06:01:46;17.08;;;5.47;;
18196;SDS011;9224;52.422;13.024;2023-02-01T06:04:13;15.73;;;4.80;;
18196;SDS011;9224;52.422;13.024;2023-02-01T06:06:39;14.13;;;4.47;;
18196;SDS011;9224;52.422;13.024;2023-02-01T06:09:06;16.13;;;5.18;;
18196;SDS011;9224;52.422;13.024;2023-02-01T06:11:34;16.70;;;4.88;;
18196;SDS011;9224;52.422;13.024;2023-02-01T06:14:01;15.27;;;4.80;;
18196;SDS011;9224;52.422;13.024;2023-02-01T06:16:28;15.85;;;4.75;;
18196;SDS011;9224;52.422;13.024;2023-02-01T06:18:54;16.33;;;4.57;;
18196;SDS011;9224;52.422;13.024;2023-02-01T06:21:21;17.15;;;4.95;;
18196;SDS011;9224;52.422;13.024;2023-02-01T06:23:49;16.45;;;4.72;;
18196;SDS011;9224;52.422;13.024;2023-02-01T06:26:16;17.40;;;5.00;;
18196;SDS011;9224;52.422;13.024;2023-02-01T06:28:44;14.40;;;5.40;;
18196;SDS011;9224;52.422;13.024;2023-02-01T06:31:11;13.10;;;4.60;;
18196;SDS011;9224;52.422;13.024;2023-02-01T06:33:38;14.25;;;4.60;;
18196;SDS011;9224;52.422;13.024;2023-02-01T06:36:06;18.02;;;4.97;;
18196;SDS011;9224;52.422;13.024;2023-02-01T06:38:34;17.80;;;4.32;;
18196;SDS011;9224;52.422;13.024;2023-02-01T06:41:01;14.73;;;4.77;;
18196;SDS011;9224;52.422;13.024;2023-02-01T06:43:28;15.50;;;4.70;;
18196;SDS011;9224;52.422;13.024;2023-02-01T06:46:00;14.38;;;4.35;;
18196;SDS011;9224;52.422;13.024;2023-02-01T06:48:27;16.55;;;4.80;;
18196;SDS011;9224;52.422;13.024;2023-02-01T06:50:53;13.88;;;5.07;;
18196;SDS011;9224;52.422;13.024;2023-02-01T06:53:20;13.43;;;4.40;;
18196;SDS011;9224;52.422;13.024;2023-02-01T06:55:53;14.05;;;5.00;;
18196;SDS011;9224;52.422;13.024;2023-02-01T06:58:20;14.63;;;4.88;;
18196;SDS011;9224;52.422;13.024;2023-02-01T07:00:47;15.43;;;4.97;;
18196;SDS011;9224;52.422;13.024;2023-02-01T07:03:15;15.50;;;4.95;;
18196;SDS011;9224;52.422;13.024;2023-02-01T07:05:42;13.52;;;4.95;;
18196;SDS011;9224;52.422;13.024;2023-02-01T07:08:09;15.23;;;5.13;;
18196;SDS011;9224;52.422;13.024;2023-02-01T07:10:35;14.98;;;4.63;;
18196;SDS011;9224;52.422;13.024;2023-02-01T07:13:02;14.85;;;4.90;;
18196;SDS011;9224;52.422;13.024;2023-02-01T07:15:28;15.93;;;4.53;;
18196;SDS011;9224;52.422;13.024;2023-02-01T07:17:55;16.30;;;4.70;;
18196;SDS011;9224;52.422;13.024;2023-02-01T07:20:23;16.08;;;5.35;;
18196;SDS011;9224;52.422;13.024;2023-02-01T07:22:54;14.68;;;4.97;;
18196;SDS011;9224;52.422;13.024;2023-02-01T07:25:21;16.67;;;5.53;;
18196;SDS011;9224;52.422;13.024;2023-02-01T07:27:47;14.52;;;5.03;;
18196;SDS011;9224;52.422;13.024;2023-02-01T07:30:14;14.43;;;5.22;;
18196;SDS011;9224;52.422;13.024;2023-02-01T07:32:41;15.53;;;5.23;;
18196;SDS011;9224;52.422;13.024;2023-02-01T07:35:08;16.17;;;5.40;;
18196;SDS011;9224;52.422;13.024;2023-02-01T07:37:36;14.20;;;5.40;;
18196;SDS011;9224;52.422;13.024;2023-02-01T07:40:03;14.88;;;4.80;;
18196;SDS011;9224;52.422;13.024;2023-02-01T07:42:30;15.63;;;5.13;;
18196;SDS011;9224;52.422;13.024;2023-02-01T07:44:57;15.43;;;5.28;;
18196;SDS011;9224;52.422;13.024;2023-02-01T07:47:23;13.10;;;4.45;;
18196;SDS011;9224;52.422;13.024;2023-02-01T07:49:50;17.17;;;5.30;;
18196;SDS011;9224;52.422;13.024;2023-02-01T07:52:16;13.23;;;4.82;;
18196;SDS011;9224;52.422;13.024;2023-02-01T07:54:44;11.68;;;4.70;;
18196;SDS011;9224;52.422;13.024;2023-02-01T07:57:11;15.77;;;5.55;;
18196;SDS011;9224;52.422;13.024;2023-02-01T07:59:38;12.85;;;5.00;;
18196;SDS011;9224;52.422;13.024;2023-02-01T08:02:25;14.98;;;4.78;;
18196;SDS011;9224;52.422;13.024;2023-02-01T08:04:50;10.37;;;4.60;;
18196;SDS011;9224;52.422;13.024;2023-02-01T08:07:17;16.90;;;5.00;;
18196;SDS011;9224;52.422;13.024;2023-02-01T08:09:45;14.40;;;5.18;;
18196;SDS011;9224;52.422;13.024;2023-02-01T08:12:12;13.67;;;5.13;;
18196;SDS011;9224;52.422;13.024;2023-02-01T08:14:38;14.48;;;5.15;;
18196;SDS011;9224;52.422;13.024;2023-02-01T08:17:06;15.77;;;5.35;;
18196;SDS011;9224;52.422;13.024;2023-02-01T08:19:32;13.75;;;5.35;;
18196;SDS011;9224;52.422;13.024;2023-02-01T08:21:59;17.63;;;5.53;;
18196;SDS011;9224;52.422;13.024;2023-02-01T08:24:27;13.88;;;5.53;;
18196;SDS011;9224;52.422;13.024;2023-02-01T08:26:55;10.35;;;4.82;;
18196;SDS011;9224;52.422;13.024;2023-02-01T08:29:21;11.00;;;4.40;;
18196;SDS011;9224;52.422;13.024;2023-02-01T08:31:48;10.18;;;4.40;;
18196;SDS011;9224;52.422;13.024;2023-02-01T08:34:15;9.48;;;4.00;;
18196;SDS011;9224;52.422;13.024;2023-02-01T08:36:42;8.85;;;3.97;;
18196;SDS011;9224;52.422;13.024;2023-02-01T08:39:09;8.02;;;3.67;;
18196;SDS011;9224;52.422;13.024;2023-02-01T08:41:36;7.70;;;3.78;;
18196;SDS011;9224;52.422;13.024;2023-02-01T08:44:04;6.10;;;3.13;;
18196;SDS011;9224;52.422;13.024;2023-02-01T08:46:31;5.10;;;3.17;;
18196;SDS011;9224;52.422;13.024;2023-02-01T08:48:57;6.07;;;3.10;;
18196;SDS011;9224;52.422;13.024;2023-02-01T08:51:25;4.95;;;2.60;;
18196;SDS011;9224;52.422;13.024;2023-02-01T08:53:52;3.33;;;2.53;;
18196;SDS011;9224;52.422;13.024;2023-02-01T08:56:18;5.28;;;3.05;;
18196;SDS011;9224;52.422;13.024;2023-02-01T08:58:45;4.70;;;2.97;;
18196;SDS011;9224;52.422;13.024;2023-02-01T09:01:14;4.47;;;2.70;;
18196;SDS011;9224;52.422;13.024;2023-02-01T09:03:41;4.88;;;3.10;;
18196;SDS011;9224;52.422;13.024;2023-02-01T09:06:09;7.72;;;3.60;;
18196;SDS011;9224;52.422;13.024;2023-02-01T09:08:37;4.30;;;2.90;;
18196;SDS011;9224;52.422;13.024;2023-02-01T09:11:04;5.22;;;2.88;;
18196;SDS011;9224;52.422;13.024;2023-02-01T09:13:32;6.20;;;3.13;;
18196;SDS011;9224;52.422;13.024;2023-02-01T09:16:00;5.88;;;2.83;;
18196;SDS011;9224;52.422;13.024;2023-02-01T09:18:28;4.85;;;3.20;;
18196;SDS011;9224;52.422;13.024;2023-02-01T09:20:55;5.07;;;3.47;;
18196;SDS011;9224;52.422;13.024;2023-02-01T09:23:21;4.10;;;3.13;;
18196;SDS011;9224;52.422;13.024;2023-02-01T09:25:48;6.72;;;3.47;;
18196;SDS011;9224;52.422;13.024;2023-02-01T09:28:15;6.15;;;2.90;;
18196;SDS011;9224;52.422;13.024;2023-02-01T09:30:42;5.05;;;2.67;;
18196;SDS011;9224;52.422;13.024;2023-02-01T09:33:08;5.85;;;2.72;;
18196;SDS011;9224;52.422;13.024;2023-02-01T09:35:36;4.90;;;2.60;;
18196;SDS011;9224;52.422;13.024;2023-02-01T09:38:03;4.97;;;2.53;;
18196;SDS011;9224;52.422;13.024;2023-02-01T09:40:30;4.95;;;2.70;;
18196;SDS011;9224;52.422;13.024;2023-02-01T09:43:00;5.88;;;2.58;;
18196;SDS011;9224;52.422;13.024;2023-02-01T09:45:40;5.20;;;2.27;;
18196;SDS011;9224;52.422;13.024;2023-02-01T09:48:12;3.07;;;1.97;;
18196;SDS011;9224;52.422;13.024;2023-02-01T09:50:43;4.15;;;1.75;;
18196;SDS011;9224;52.422;13.024;2023-02-01T09:53:12;3.50;;;1.67;;
18196;SDS011;9224;52.422;13.024;2023-02-01T09:55:42;5.15;;;1.98;;
18196;SDS011;9224;52.422;13.024;2023-02-01T09:58:12;3.05;;;1.60;;
18196;SDS011;9224;52.422;13.024;2023-02-01T10:00:41;4.07;;;1.70;;
18196;SDS011;9224;52.422;13.024;2023-02-01T10:03:11;2.25;;;1.40;;
18196;SDS011;9224;52.422;13.024;2023-02-01T10:05:44;3.40;;;1.90;;
18196;SDS011;9224;52.422;13.024;2023-02-01T10:08:23;4.35;;;2.20;;
18196;SDS011;9224;52.422;13.024;2023-02-01T10:10:55;5.70;;;3.33;;
18196;SDS011;9224;52.422;13.024;2023-02-01T10:13:31;5.57;;;2.80;;
18196;SDS011;9224;52.422;13.024;2023-02-01T10:16:06;5.47;;;2.10;;
18196;SDS011;9224;52.422;13.024;2023-02-01T10:18:43;3.35;;;1.88;;
18196;SDS011;9224;52.422;13.024;2023-02-01T10:21:21;4.15;;;2.40;;
18196;SDS011;9224;52.422;13.024;2023-02-01T10:24:02;3.53;;;2.08;;
18196;SDS011;9224;52.422;13.024;2023-02-01T10:26:36;4.47;;;2.20;;
18196;SDS011;9224;52.422;13.024;2023-02-01T10:29:04;4.50;;;2.05;;
18196;SDS011;9224;52.422;13.024;2023-02-01T10:31:39;4.45;;;2.10;;
18196;SDS011;9224;52.422;13.024;2023-02-01T10:34:09;3.67;;;2.20;;
18196;SDS011;9224;52.422;13.024;2023-02-01T10:36:42;7.32;;;2.33;;
18196;SDS011;9224;52.422;13.024;2023-02-01T10:39:16;5.32;;;2.22;;
18196;SDS011;9224;52.422;13.024;2023-02-01T10:41:44;6.28;;;2.40;;
18196;SDS011;9224;52.422;13.024;2023-02-01T10:44:11;6.95;;;2.53;;
18196;SDS011;9224;52.422;13.024;2023-02-01T10:46:39;4.60;;;2.67;;
18196;SDS011;9224;52.422;13.024;2023-02-01T10:49:09;6.97;;;2.45;;
18196;SDS011;9224;52.422;13.024;2023-02-01T10:51:42;6.50;;;2.55;;
18196;SDS011;9224;52.422;13.024;2023-02-01T10:54:11;4.35;;;2.40;;
18196;SDS011;9224;52.422;13.024;2023-02-01T10:56:40;5.22;;;2.63;;
18196;SDS011;9224;52.422;13.024;2023-02-01T10:59:14;6.70;;;3.00;;
18196;SDS011;9224;52.422;13.024;2023-02-01T11:01:43;6.07;;;2.88;;
18196;SDS011;9224;52.422;13.024;2023-02-01T11:04:12;6.18;;;2.80;;
18196;SDS011;9224;52.422;13.024;2023-02-01T11:06:39;7.57;;;3.10;;
18196;SDS011;9224;52.422;13.024;2023-02-01T11:09:16;7.50;;;3.00;;
18196;SDS011;9224;52.422;13.024;2023-02-01T11:11:53;7.32;;;2.65;;
18196;SDS011;9224;52.422;13.024;2023-02-01T11:14:27;5.95;;;2.88;;
18196;SDS011;9224;52.422;13.024;2023-02-01T11:16:59;6.07;;;2.45;;
18196;SDS011;9224;52.422;13.024;2023-02-01T11:19:26;8.43;;;3.00;;
18196;SDS011;9224;52.422;13.024;2023-02-01T11:21:55;8.10;;;3.17;;
18196;SDS011;9224;52.422;13.024;2023-02-01T11:24:25;5.78;;;2.53;;
18196;SDS011;9224;52.422;13.024;2023-02-01T11:26:54;7.10;;;2.92;;
18196;SDS011;9224;52.422;13.024;2023-02-01T11:29:21;6.15;;;2.53;;
18196;SDS011;9224;52.422;13.024;2023-02-01T11:31:54;7.13;;;2.83;;
18196;SDS011;9224;52.422;13.024;2023-02-01T11:34:22;6.72;;;2.50;;
18196;SDS011;9224;52.422;13.024;2023-02-01T11:36:51;6.75;;;2.90;;
18196;SDS011;9224;52.422;13.024;2023-02-01T11:39:30;6.37;;;2.70;;
18196;SDS011;9224;52.422;13.024;2023-02-01T11:41:59;7.80;;;3.05;;
18196;SDS011;9224;52.422;13.024;2023-02-01T11:44:30;5.57;;;2.55;;
18196;SDS011;9224;52.422;13.024;2023-02-01T11:47:16;6.30;;;2.60;;
18196;SDS011;9224;52.422;13.024;2023-02-01T11:49:45;8.10;;;2.95;;
18196;SDS011;9224;52.422;13.024;2023-02-01T11:52:12;7.80;;;3.10;;
18196;SDS011;9224;52.422;13.024;2023-02-01T11:54:55;7.65;;;3.28;;
18196;SDS011;9224;52.422;13.024;2023-02-01T11:57:34;7.53;;;3.20;;
18196;SDS011;9224;52.422;13.024;2023-02-01T12:00:20;8.52;;;3.00;;
18196;SDS011;9224;52.422;13.024;2023-02-01T12:02:57;8.20;;;3.22;;
18196;SDS011;9224;52.422;13.024;2023-02-01T12:05:35;7.35;;;2.90;;
18196;SDS011;9224;52.422;13.024;2023-02-01T12:08:14;8.57;;;3.28;;
18196;SDS011;9224;52.422;13.024;2023-02-01T12:10:50;9.98;;;3.20;;
18196;SDS011;9224;52.422;13.024;2023-02-01T12:13:27;7.07;;;2.88;;
18196;SDS011;9224;52.422;13.024;2023-02-01T12:16:02;7.28;;;3.10;;
18196;SDS011;9224;52.422;13.024;2023-02-01T12:21:49;8.50;;;3.08;;
18196;SDS011;9224;52.422;13.024;2023-02-01T12:24:24;8.63;;;3.00;;
18196;SDS011;9224;52.422;13.024;2023-02-01T12:27:01;8.65;;;3.10;;
18196;SDS011;9224;52.422;13.024;2023-02-01T12:29:35;6.95;;;3.25;;
18196;SDS011;9224;52.422;13.024;2023-02-01T12:32:13;10.65;;;3.20;;
18196;SDS011;9224;52.422;13.024;2023-02-01T12:35:01;6.97;;;2.97;;
18196;SDS011;9224;52.422;13.024;2023-02-01T12:37:39;6.97;;;2.67;;
18196;SDS011;9224;52.422;13.024;2023-02-01T12:40:16;6.68;;;2.90;;
18196;SDS011;9224;52.422;13.024;2023-02-01T12:42:51;7.15;;;2.92;;
18196;SDS011;9224;52.422;13.024;2023-02-01T12:45:25;6.07;;;2.67;;
18196;SDS011;9224;52.422;13.024;2023-02-01T12:47:57;4.80;;;2.40;;
18196;SDS011;9224;52.422;13.024;2023-02-01T12:50:28;6.43;;;2.40;;
18196;SDS011;9224;52.422;13.024;2023-02-01T12:52:58;5.63;;;2.53;;
18196;SDS011;9224;52.422;13.024;2023-02-01T12:55:34;7.65;;;2.70;;
18196;SDS011;9224;52.422;13.024;2023-02-01T12:58:05;6.95;;;2.97;;
18196;SDS011;9224;52.422;13.024;2023-02-01T13:00:35;8.07;;;2.80;;
18196;SDS011;9224;52.422;13.024;2023-02-01T13:03:04;6.20;;;2.95;;
18196;SDS011;9224;52.422;13.024;2023-02-01T13:05:41;6.53;;;2.80;;
18196;SDS011;9224;52.422;13.024;2023-02-01T13:08:14;8.02;;;2.90;;
18196;SDS011;9224;52.422;13.024;2023-02-01T13:10:45;8.25;;;3.70;;
18196;SDS011;9224;52.422;13.024;2023-02-01T13:13:16;9.23;;;3.50;;
18196;SDS011;9224;52.422;13.024;2023-02-01T13:15:47;6.15;;;3.03;;
18196;SDS011;9224;52.422;13.024;2023-02-01T13:18:18;9.57;;;3.42;;
18196;SDS011;9224;52.422;13.024;2023-02-01T13:20:48;8.65;;;3.20;;
18196;SDS011;9224;52.422;13.024;2023-02-01T13:23:21;9.15;;;3.30;;
18196;SDS011;9224;52.422;13.024;2023-02-01T13:25:50;8.93;;;3.35;;
18196;SDS011;9224;52.422;13.024;2023-02-01T13:28:22;7.80;;;3.50;;
18196;SDS011;9224;52.422;13.024;2023-02-01T13:31:05;7.95;;;3.28;;
18196;SDS011;9224;52.422;13.024;2023-02-01T13:33:52;9.32;;;3.35;;
18196;SDS011;9224;52.422;13.024;2023-02-01T13:39:24;8.85;;;3.40;;
18196;SDS011;9224;52.422;13.024;2023-02-01T13:42:11;8.93;;;3.50;;
18196;SDS011;9224;52.422;13.024;2023-02-01T13:44:42;7.83;;;3.13;;
18196;SDS011;9224;52.422;13.024;2023-02-01T13:47:12;8.95;;;3.20;;
18196;SDS011;9224;52.422;13.024;2023-02-01T13:49:53;9.25;;;3.63;;
18196;SDS011;9224;52.422;13.024;2023-02-01T13:52:24;10.98;;;3.38;;
18196;SDS011;9224;52.422;13.024;2023-02-01T13:55:00;10.10;;;4.10;;
18196;SDS011;9224;52.422;13.024;2023-02-01T13:57:35;10.02;;;3.60;;
18196;SDS011;9224;52.422;13.024;2023-02-01T14:00:08;10.38;;;3.85;;
18196;SDS011;9224;52.422;13.024;2023-02-01T14:02:50;10.43;;;3.58;;
18196;SDS011;9224;52.422;13.024;2023-02-01T14:08:35;10.88;;;3.55;;
18196;SDS011;9224;52.422;13.024;2023-02-01T14:11:06;9.75;;;3.50;;
18196;SDS011;9224;52.422;13.024;2023-02-01T14:14:13;11.68;;;4.07;;
18196;SDS011;9224;52.422;13.024;2023-02-01T14:23:11;10.15;;;3.55;;
18196;SDS011;9224;52.422;13.024;2023-02-01T14:25:40;11.48;;;3.70;;
18196;SDS011;9224;52.422;13.024;2023-02-01T14:28:10;13.25;;;3.60;;
18196;SDS011;9224;52.422;13.024;2023-02-01T14:30:38;11.52;;;3.95;;
18196;SDS011;9224;52.422;13.024;2023-02-01T14:33:15;9.70;;;3.90;;
18196;SDS011;9224;52.422;13.024;2023-02-01T14:35:52;10.10;;;3.75;;
18196;SDS011;9224;52.422;13.024;2023-02-01T14:38:27;9.45;;;3.88;;
18196;SDS011;9224;52.422;13.024;2023-02-01T14:41:09;9.02;;;3.15;;
18196;SDS011;9224;52.422;13.024;2023-02-01T14:43:51;7.85;;;3.30;;
18196;SDS011;9224;52.422;13.024;2023-02-01T14:49:37;5.43;;;2.55;;
18196;SDS011;9224;52.422;13.024;2023-02-01T14:52:11;5.60;;;2.50;;
18196;SDS011;9224;52.422;13.024;2023-02-01T14:54:40;6.50;;;2.70;;
18196;SDS011;9224;52.422;13.024;2023-02-01T14:57:10;6.50;;;2.83;;
18196;SDS011;9224;52.422;13.024;2023-02-01T14:59:41;5.80;;;2.40;;
18196;SDS011;9224;52.422;13.024;2023-02-01T15:02:15;5.63;;;2.85;;
18196;SDS011;9224;52.422;13.024;2023-02-01T15:04:45;6.43;;;2.83;;
18196;SDS011;9224;52.422;13.024;2023-02-01T15:07:12;7.00;;;3.20;;
18196;SDS011;9224;52.422;13.024;2023-02-01T15:09:42;6.95;;;3.35;;
18196;SDS011;9224;52.422;13.024;2023-02-01T15:12:14;8.30;;;3.78;;
18196;SDS011;9224;52.422;13.024;2023-02-01T15:14:46;10.38;;;3.60;;
18196;SDS011;9224;52.422;13.024;2023-02-01T15:17:19;9.43;;;3.45;;
18196;SDS011;9224;52.422;13.024;2023-02-01T15:19:54;10.65;;;3.58;;
18196;SDS011;9224;52.422;13.024;2023-02-01T15:22:21;9.02;;;3.55;;
18196;SDS011;9224;52.422;13.024;2023-02-01T15:24:51;6.63;;;3.63;;